sensor_id;sensor_type;location;lat;lon;timestamp;temperature;humidity
40153;DHT22;26371;56.992;23.912;2024-03-22T00:00:27;5.00;99.90
40153;DHT22;26371;56.992;23.912;2024-03-22T00:02:53;5.00;99.90
40153;DHT22;26371;56.992;23.912;2024-03-22T00:05:21;5.00;99.90
40153;DHT22;26371;56.992;23.912;2024-03-22T00:07:49;5.00;99.90
40153;DHT22;26371;56.992;23.912;2024-03-22T00:10:17;5.00;99.90
40153;DHT22;26371;56.992;23.912;2024-03-22T00:12:43;5.00;99.90
40153;DHT22;26371;56.992;23.912;2024-03-22T00:15:11;5.00;99.90
40153;DHT22;26371;56.992;23.912;2024-03-22T00:17:37;5.00;99.90
40153;DHT22;26371;56.992;23.912;2024-03-22T00:20:06;5.00;99.90
40153;DHT22;26371;56.992;23.912;2024-03-22T00:22:33;5.10;99.90
40153;DHT22;26371;56.992;23.912;2024-03-22T00:25:02;5.00;99.90
40153;DHT22;26371;56.992;23.912;2024-03-22T00:27:29;5.00;99.90
40153;DHT22;26371;56.992;23.912;2024-03-22T00:29:56;5.00;99.90
40153;DHT22;26371;56.992;23.912;2024-03-22T00:32:23;5.00;99.90
40153;DHT22;26371;56.992;23.912;2024-03-22T00:34:51;5.00;99.90
40153;DHT22;26371;56.992;23.912;2024-03-22T00:37:17;5.00;99.90
40153;DHT22;26371;56.992;23.912;2024-03-22T00:39:45;5.00;99.90
40153;DHT22;26371;56.992;23.912;2024-03-22T00:42:13;5.00;99.90
40153;DHT22;26371;56.992;23.912;2024-03-22T00:44:40;5.00;99.90
40153;DHT22;26371;56.992;23.912;2024-03-22T00:47:07;4.90;99.90
40153;DHT22;26371;56.992;23.912;2024-03-22T00:49:35;5.00;99.90
40153;DHT22;26371;56.992;23.912;2024-03-22T00:52:02;4.90;99.90
40153;DHT22;26371;56.992;23.912;2024-03-22T00:54:30;4.90;99.90
40153;DHT22;26371;56.992;23.912;2024-03-22T00:56:56;4.90;99.90
40153;DHT22;26371;56.992;23.912;2024-03-22T00:59:25;4.80;99.90
40153;DHT22;26371;56.992;23.912;2024-03-22T01:01:52;4.90;99.90
40153;DHT22;26371;56.992;23.912;2024-03-22T01:04:19;4.90;99.90
40153;DHT22;26371;56.992;23.912;2024-03-22T01:06:46;4.90;99.90
40153;DHT22;26371;56.992;23.912;2024-03-22T01:09:13;4.90;99.90
40153;DHT22;26371;56.992;23.912;2024-03-22T01:11:40;4.90;99.90
40153;DHT22;26371;56.992;23.912;2024-03-22T01:14:08;4.80;99.90
40153;DHT22;26371;56.992;23.912;2024-03-22T01:16:36;4.80;99.90
40153;DHT22;26371;56.992;23.912;2024-03-22T01:19:03;4.80;99.90
40153;DHT22;26371;56.992;23.912;2024-03-22T01:21:30;4.70;99.90
40153;DHT22;26371;56.992;23.912;2024-03-22T01:23:58;4.70;99.90
40153;DHT22;26371;56.992;23.912;2024-03-22T01:26:24;4.70;99.90
40153;DHT22;26371;56.992;23.912;2024-03-22T01:28:52;4.70;99.90
40153;DHT22;26371;56.992;23.912;2024-03-22T01:31:19;4.70;99.90
40153;DHT22;26371;56.992;23.912;2024-03-22T01:33:48;4.70;99.90
40153;DHT22;26371;56.992;23.912;2024-03-22T01:36:14;4.80;99.90
40153;DHT22;26371;56.992;23.912;2024-03-22T01:38:42;4.80;99.90
40153;DHT22;26371;56.992;23.912;2024-03-22T01:41:08;4.80;99.90
40153;DHT22;26371;56.992;23.912;2024-03-22T01:43:36;4.80;99.90
40153;DHT22;26371;56.992;23.912;2024-03-22T01:46:04;4.70;99.90
40153;DHT22;26371;56.992;23.912;2024-03-22T01:48:34;4.70;99.90
40153;DHT22;26371;56.992;23.912;2024-03-22T01:51:04;4.70;99.90
40153;DHT22;26371;56.992;23.912;2024-03-22T01:53:31;4.80;99.90
40153;DHT22;26371;56.992;23.912;2024-03-22T01:55:59;4.80;99.90
40153;DHT22;26371;56.992;23.912;2024-03-22T01:58:26;4.80;99.90
40153;DHT22;26371;56.992;23.912;2024-03-22T02:00:54;4.80;99.90
40153;DHT22;26371;56.992;23.912;2024-03-22T02:03:21;4.80;99.90
40153;DHT22;26371;56.992;23.912;2024-03-22T02:05:49;4.80;99.90
40153;DHT22;26371;56.992;23.912;2024-03-22T02:08:17;4.80;99.90
40153;DHT22;26371;56.992;23.912;2024-03-22T02:10:45;4.80;99.90
40153;DHT22;26371;56.992;23.912;2024-03-22T02:13:11;4.80;99.90
40153;DHT22;26371;56.992;23.912;2024-03-22T02:15:39;4.80;99.90
40153;DHT22;26371;56.992;23.912;2024-03-22T02:18:06;4.70;99.90
40153;DHT22;26371;56.992;23.912;2024-03-22T02:20:33;4.80;99.90
40153;DHT22;26371;56.992;23.912;2024-03-22T02:23:00;4.70;99.90
40153;DHT22;26371;56.992;23.912;2024-03-22T02:25:29;4.70;99.90
40153;DHT22;26371;56.992;23.912;2024-03-22T02:27:56;4.60;99.90
40153;DHT22;26371;56.992;23.912;2024-03-22T02:30:23;4.60;99.90
40153;DHT22;26371;56.992;23.912;2024-03-22T02:32:50;4.60;99.90
40153;DHT22;26371;56.992;23.912;2024-03-22T02:35:17;4.60;99.90
40153;DHT22;26371;56.992;23.912;2024-03-22T02:37:44;4.60;99.90
40153;DHT22;26371;56.992;23.912;2024-03-22T02:40:12;4.60;99.90
40153;DHT22;26371;56.992;23.912;2024-03-22T02:42:40;4.50;99.90
40153;DHT22;26371;56.992;23.912;2024-03-22T02:45:08;4.50;99.90
40153;DHT22;26371;56.992;23.912;2024-03-22T02:47:35;4.50;99.90
40153;DHT22;26371;56.992;23.912;2024-03-22T02:50:03;4.50;99.90
40153;DHT22;26371;56.992;23.912;2024-03-22T02:52:29;4.40;99.90
40153;DHT22;26371;56.992;23.912;2024-03-22T02:54:57;4.40;99.90
40153;DHT22;26371;56.992;23.912;2024-03-22T02:57:24;4.40;99.90
40153;DHT22;26371;56.992;23.912;2024-03-22T02:59:53;4.50;99.90
40153;DHT22;26371;56.992;23.912;2024-03-22T03:02:20;4.50;99.90
40153;DHT22;26371;56.992;23.912;2024-03-22T03:04:47;4.50;99.90
40153;DHT22;26371;56.992;23.912;2024-03-22T03:07:14;4.50;99.90
40153;DHT22;26371;56.992;23.912;2024-03-22T03:09:42;4.50;99.90
40153;DHT22;26371;56.992;23.912;2024-03-22T03:12:08;4.50;99.90
40153;DHT22;26371;56.992;23.912;2024-03-22T03:14:36;4.50;99.90
40153;DHT22;26371;56.992;23.912;2024-03-22T03:17:04;4.50;99.90
40153;DHT22;26371;56.992;23.912;2024-03-22T03:19:32;4.50;99.90
40153;DHT22;26371;56.992;23.912;2024-03-22T03:21:58;4.50;99.90
40153;DHT22;26371;56.992;23.912;2024-03-22T03:24:26;4.50;99.90
40153;DHT22;26371;56.992;23.912;2024-03-22T03:26:52;4.50;99.90
40153;DHT22;26371;56.992;23.912;2024-03-22T03:29:20;4.50;99.90
40153;DHT22;26371;56.992;23.912;2024-03-22T03:31:47;4.40;99.90
40153;DHT22;26371;56.992;23.912;2024-03-22T03:34:16;4.50;99.90
40153;DHT22;26371;56.992;23.912;2024-03-22T03:36:43;4.40;99.90
40153;DHT22;26371;56.992;23.912;2024-03-22T03:39:10;4.40;99.90
40153;DHT22;26371;56.992;23.912;2024-03-22T03:41:37;4.40;99.90
40153;DHT22;26371;56.992;23.912;2024-03-22T03:44:04;4.40;99.90
40153;DHT22;26371;56.992;23.912;2024-03-22T03:46:31;4.50;99.90
40153;DHT22;26371;56.992;23.912;2024-03-22T03:48:59;4.50;99.90
40153;DHT22;26371;56.992;23.912;2024-03-22T03:51:27;4.40;99.90
40153;DHT22;26371;56.992;23.912;2024-03-22T03:53:54;4.40;99.90
40153;DHT22;26371;56.992;23.912;2024-03-22T03:56:21;4.40;99.90
40153;DHT22;26371;56.992;23.912;2024-03-22T03:58:49;4.40;99.90
40153;DHT22;26371;56.992;23.912;2024-03-22T04:01:15;4.40;99.90
40153;DHT22;26371;56.992;23.912;2024-03-22T04:03:44;4.40;99.90
40153;DHT22;26371;56.992;23.912;2024-03-22T04:06:10;4.40;99.90
40153;DHT22;26371;56.992;23.912;2024-03-22T04:08:39;4.40;99.90
40153;DHT22;26371;56.992;23.912;2024-03-22T04:11:06;4.40;99.90
40153;DHT22;26371;56.992;23.912;2024-03-22T04:13:34;4.40;99.90
40153;DHT22;26371;56.992;23.912;2024-03-22T04:16:00;4.40;99.90
40153;DHT22;26371;56.992;23.912;2024-03-22T04:18:28;4.30;99.90
40153;DHT22;26371;56.992;23.912;2024-03-22T04:20:55;4.30;99.90
40153;DHT22;26371;56.992;23.912;2024-03-22T04:23:23;4.30;99.90
40153;DHT22;26371;56.992;23.912;2024-03-22T04:25:55;4.30;99.90
40153;DHT22;26371;56.992;23.912;2024-03-22T04:28:23;4.30;99.90
40153;DHT22;26371;56.992;23.912;2024-03-22T04:30:58;4.30;99.90
40153;DHT22;26371;56.992;23.912;2024-03-22T04:33:26;4.30;99.90
40153;DHT22;26371;56.992;23.912;2024-03-22T04:35:53;4.30;99.90
40153;DHT22;26371;56.992;23.912;2024-03-22T04:38:20;4.30;99.90
40153;DHT22;26371;56.992;23.912;2024-03-22T04:40:48;4.30;99.90
40153;DHT22;26371;56.992;23.912;2024-03-22T04:43:17;4.30;99.90
40153;DHT22;26371;56.992;23.912;2024-03-22T04:45:46;4.30;99.90
40153;DHT22;26371;56.992;23.912;2024-03-22T04:48:13;4.30;99.90
40153;DHT22;26371;56.992;23.912;2024-03-22T04:50:41;4.30;99.90
40153;DHT22;26371;56.992;23.912;2024-03-22T04:53:08;4.30;99.90
40153;DHT22;26371;56.992;23.912;2024-03-22T04:55:35;4.30;99.90
40153;DHT22;26371;56.992;23.912;2024-03-22T04:58:04;4.30;99.90
40153;DHT22;26371;56.992;23.912;2024-03-22T05:00:33;4.30;99.90
40153;DHT22;26371;56.992;23.912;2024-03-22T05:02:59;4.30;99.90
40153;DHT22;26371;56.992;23.912;2024-03-22T05:05:27;4.20;99.90
40153;DHT22;26371;56.992;23.912;2024-03-22T05:07:54;4.30;99.90
40153;DHT22;26371;56.992;23.912;2024-03-22T05:10:21;4.20;99.90
40153;DHT22;26371;56.992;23.912;2024-03-22T05:12:48;4.20;99.90
40153;DHT22;26371;56.992;23.912;2024-03-22T05:15:15;4.20;99.90
40153;DHT22;26371;56.992;23.912;2024-03-22T05:17:43;4.20;99.90
40153;DHT22;26371;56.992;23.912;2024-03-22T05:20:11;4.20;99.90
40153;DHT22;26371;56.992;23.912;2024-03-22T05:22:38;4.20;99.90
40153;DHT22;26371;56.992;23.912;2024-03-22T05:25:06;4.20;99.90
40153;DHT22;26371;56.992;23.912;2024-03-22T05:27:34;4.20;99.90
40153;DHT22;26371;56.992;23.912;2024-03-22T05:30:02;4.20;99.90
40153;DHT22;26371;56.992;23.912;2024-03-22T05:32:30;4.20;99.90
40153;DHT22;26371;56.992;23.912;2024-03-22T05:34:59;4.20;99.90
40153;DHT22;26371;56.992;23.912;2024-03-22T05:37:26;4.20;99.90
40153;DHT22;26371;56.992;23.912;2024-03-22T05:39:53;4.30;99.90
40153;DHT22;26371;56.992;23.912;2024-03-22T05:42:20;4.20;99.90
40153;DHT22;26371;56.992;23.912;2024-03-22T05:44:48;4.20;99.90
40153;DHT22;26371;56.992;23.912;2024-03-22T05:47:14;4.30;99.90
40153;DHT22;26371;56.992;23.912;2024-03-22T05:49:42;4.30;99.90
40153;DHT22;26371;56.992;23.912;2024-03-22T05:52:10;4.30;99.90
40153;DHT22;26371;56.992;23.912;2024-03-22T05:54:57;4.30;99.90
40153;DHT22;26371;56.992;23.912;2024-03-22T05:57:23;4.30;99.90
40153;DHT22;26371;56.992;23.912;2024-03-22T05:59:51;4.30;99.90
40153;DHT22;26371;56.992;23.912;2024-03-22T06:02:19;4.40;99.90
40153;DHT22;26371;56.992;23.912;2024-03-22T06:04:47;4.40;99.90
40153;DHT22;26371;56.992;23.912;2024-03-22T06:07:15;4.40;99.90
40153;DHT22;26371;56.992;23.912;2024-03-22T06:09:43;4.50;99.90
40153;DHT22;26371;56.992;23.912;2024-03-22T06:12:12;4.50;99.90
40153;DHT22;26371;56.992;23.912;2024-03-22T06:14:40;4.50;99.90
40153;DHT22;26371;56.992;23.912;2024-03-22T06:17:07;4.50;99.90
40153;DHT22;26371;56.992;23.912;2024-03-22T06:19:35;4.70;99.90
40153;DHT22;26371;56.992;23.912;2024-03-22T06:22:01;4.70;99.90
40153;DHT22;26371;56.992;23.912;2024-03-22T06:24:31;4.70;99.90
40153;DHT22;26371;56.992;23.912;2024-03-22T06:26:58;4.70;99.90
40153;DHT22;26371;56.992;23.912;2024-03-22T06:29:25;4.70;99.90
40153;DHT22;26371;56.992;23.912;2024-03-22T06:31:52;4.70;99.90
40153;DHT22;26371;56.992;23.912;2024-03-22T06:34:19;4.80;99.90
40153;DHT22;26371;56.992;23.912;2024-03-22T06:36:46;4.80;99.90
40153;DHT22;26371;56.992;23.912;2024-03-22T06:39:14;4.80;99.90
40153;DHT22;26371;56.992;23.912;2024-03-22T06:41:42;4.80;99.90
40153;DHT22;26371;56.992;23.912;2024-03-22T06:44:10;4.80;99.90
40153;DHT22;26371;56.992;23.912;2024-03-22T06:46:39;4.70;99.90
40153;DHT22;26371;56.992;23.912;2024-03-22T06:49:06;4.70;99.90
40153;DHT22;26371;56.992;23.912;2024-03-22T06:51:33;4.70;99.90
40153;DHT22;26371;56.992;23.912;2024-03-22T06:54:00;4.80;99.90
40153;DHT22;26371;56.992;23.912;2024-03-22T06:56:27;4.70;99.90
40153;DHT22;26371;56.992;23.912;2024-03-22T06:58:56;4.80;99.90
40153;DHT22;26371;56.992;23.912;2024-03-22T07:01:23;4.80;99.90
40153;DHT22;26371;56.992;23.912;2024-03-22T07:03:51;4.90;99.90
40153;DHT22;26371;56.992;23.912;2024-03-22T07:06:19;4.90;99.90
40153;DHT22;26371;56.992;23.912;2024-03-22T07:08:46;4.90;99.90
40153;DHT22;26371;56.992;23.912;2024-03-22T07:11:13;4.80;99.90
40153;DHT22;26371;56.992;23.912;2024-03-22T07:13:40;4.80;99.90
40153;DHT22;26371;56.992;23.912;2024-03-22T07:16:10;4.80;99.90
40153;DHT22;26371;56.992;23.912;2024-03-22T07:18:36;4.80;99.90
40153;DHT22;26371;56.992;23.912;2024-03-22T07:21:04;4.80;99.90
40153;DHT22;26371;56.992;23.912;2024-03-22T07:23:31;4.80;99.90
40153;DHT22;26371;56.992;23.912;2024-03-22T07:25:59;4.90;99.90
40153;DHT22;26371;56.992;23.912;2024-03-22T07:28:26;4.90;99.90
40153;DHT22;26371;56.992;23.912;2024-03-22T07:30:53;5.00;99.90
40153;DHT22;26371;56.992;23.912;2024-03-22T07:33:22;5.00;99.90
40153;DHT22;26371;56.992;23.912;2024-03-22T07:35:50;4.90;99.90
40153;DHT22;26371;56.992;23.912;2024-03-22T07:38:16;5.00;99.90
40153;DHT22;26371;56.992;23.912;2024-03-22T07:40:44;5.00;99.90
40153;DHT22;26371;56.992;23.912;2024-03-22T07:43:11;5.00;99.90
40153;DHT22;26371;56.992;23.912;2024-03-22T07:45:41;4.90;99.90
40153;DHT22;26371;56.992;23.912;2024-03-22T07:48:07;4.90;99.90
40153;DHT22;26371;56.992;23.912;2024-03-22T07:50:37;4.90;99.90
40153;DHT22;26371;56.992;23.912;2024-03-22T07:53:04;5.00;99.90
40153;DHT22;26371;56.992;23.912;2024-03-22T07:55:32;5.00;99.90
40153;DHT22;26371;56.992;23.912;2024-03-22T07:57:59;5.00;99.90
40153;DHT22;26371;56.992;23.912;2024-03-22T08:00:27;5.00;99.90
40153;DHT22;26371;56.992;23.912;2024-03-22T08:02:54;5.00;99.90
40153;DHT22;26371;56.992;23.912;2024-03-22T08:05:21;5.00;99.90
40153;DHT22;26371;56.992;23.912;2024-03-22T08:07:49;5.00;99.90
40153;DHT22;26371;56.992;23.912;2024-03-22T08:10:17;5.00;99.90
40153;DHT22;26371;56.992;23.912;2024-03-22T08:12:43;5.00;99.90
40153;DHT22;26371;56.992;23.912;2024-03-22T08:15:11;5.00;99.90
40153;DHT22;26371;56.992;23.912;2024-03-22T08:17:38;5.10;99.90
40153;DHT22;26371;56.992;23.912;2024-03-22T08:20:07;5.10;99.90
40153;DHT22;26371;56.992;23.912;2024-03-22T08:22:34;5.20;99.90
40153;DHT22;26371;56.992;23.912;2024-03-22T08:25:02;5.20;99.90
40153;DHT22;26371;56.992;23.912;2024-03-22T08:27:30;5.20;99.90
40153;DHT22;26371;56.992;23.912;2024-03-22T08:29:57;5.10;99.90
40153;DHT22;26371;56.992;23.912;2024-03-22T08:32:25;5.10;99.90
40153;DHT22;26371;56.992;23.912;2024-03-22T08:34:51;5.20;99.90
40153;DHT22;26371;56.992;23.912;2024-03-22T08:37:19;5.10;99.90
40153;DHT22;26371;56.992;23.912;2024-03-22T08:39:45;5.10;99.90
40153;DHT22;26371;56.992;23.912;2024-03-22T08:42:15;5.10;99.90
40153;DHT22;26371;56.992;23.912;2024-03-22T08:44:42;5.00;99.90
40153;DHT22;26371;56.992;23.912;2024-03-22T08:47:10;5.10;99.90
40153;DHT22;26371;56.992;23.912;2024-03-22T08:49:36;5.10;99.90
40153;DHT22;26371;56.992;23.912;2024-03-22T08:52:04;5.10;99.90
40153;DHT22;26371;56.992;23.912;2024-03-22T08:54:30;5.20;99.90
40153;DHT22;26371;56.992;23.912;2024-03-22T08:56:58;5.20;99.90
40153;DHT22;26371;56.992;23.912;2024-03-22T08:59:26;5.30;99.90
40153;DHT22;26371;56.992;23.912;2024-03-22T09:01:54;5.30;99.90
40153;DHT22;26371;56.992;23.912;2024-03-22T09:04:20;5.10;99.90
40153;DHT22;26371;56.992;23.912;2024-03-22T09:06:48;5.10;99.90
40153;DHT22;26371;56.992;23.912;2024-03-22T09:09:15;5.10;99.90
40153;DHT22;26371;56.992;23.912;2024-03-22T09:11:43;5.20;99.90
40153;DHT22;26371;56.992;23.912;2024-03-22T09:14:09;5.20;99.90
40153;DHT22;26371;56.992;23.912;2024-03-22T09:16:39;5.30;99.90
40153;DHT22;26371;56.992;23.912;2024-03-22T09:19:06;5.20;99.90
40153;DHT22;26371;56.992;23.912;2024-03-22T09:21:34;5.10;99.90
40153;DHT22;26371;56.992;23.912;2024-03-22T09:24:01;5.00;99.90
40153;DHT22;26371;56.992;23.912;2024-03-22T09:26:32;5.00;99.90
40153;DHT22;26371;56.992;23.912;2024-03-22T09:28:59;5.00;99.90
40153;DHT22;26371;56.992;23.912;2024-03-22T09:31:28;5.00;99.90
40153;DHT22;26371;56.992;23.912;2024-03-22T09:33:56;5.00;99.90
40153;DHT22;26371;56.992;23.912;2024-03-22T09:36:24;4.90;99.90
40153;DHT22;26371;56.992;23.912;2024-03-22T09:38:50;4.90;99.90
40153;DHT22;26371;56.992;23.912;2024-03-22T09:41:23;4.90;99.90
40153;DHT22;26371;56.992;23.912;2024-03-22T09:43:51;4.90;99.90
40153;DHT22;26371;56.992;23.912;2024-03-22T09:46:20;4.90;99.90
40153;DHT22;26371;56.992;23.912;2024-03-22T09:48:48;4.90;99.90
40153;DHT22;26371;56.992;23.912;2024-03-22T09:51:17;4.80;99.90
40153;DHT22;26371;56.992;23.912;2024-03-22T09:53:44;4.90;99.90
40153;DHT22;26371;56.992;23.912;2024-03-22T09:56:14;4.90;99.90
40153;DHT22;26371;56.992;23.912;2024-03-22T09:58:41;5.00;99.90
40153;DHT22;26371;56.992;23.912;2024-03-22T10:01:09;5.00;99.90
40153;DHT22;26371;56.992;23.912;2024-03-22T10:03:37;5.00;99.90
40153;DHT22;26371;56.992;23.912;2024-03-22T10:06:06;5.10;99.90
40153;DHT22;26371;56.992;23.912;2024-03-22T10:08:34;5.10;99.90
40153;DHT22;26371;56.992;23.912;2024-03-22T10:11:02;5.10;99.90
40153;DHT22;26371;56.992;23.912;2024-03-22T10:13:29;5.20;99.90
40153;DHT22;26371;56.992;23.912;2024-03-22T10:15:57;5.20;99.90
40153;DHT22;26371;56.992;23.912;2024-03-22T10:18:23;5.20;99.90
40153;DHT22;26371;56.992;23.912;2024-03-22T10:20:59;5.20;99.90
40153;DHT22;26371;56.992;23.912;2024-03-22T10:23:27;5.20;99.90
40153;DHT22;26371;56.992;23.912;2024-03-22T10:25:56;5.20;99.90
40153;DHT22;26371;56.992;23.912;2024-03-22T10:28:23;5.20;99.90
40153;DHT22;26371;56.992;23.912;2024-03-22T10:30:51;5.20;99.90
40153;DHT22;26371;56.992;23.912;2024-03-22T10:33:20;5.10;99.90
40153;DHT22;26371;56.992;23.912;2024-03-22T10:35:52;5.00;99.90
40153;DHT22;26371;56.992;23.912;2024-03-22T10:38:19;5.00;99.90
40153;DHT22;26371;56.992;23.912;2024-03-22T10:40:47;5.20;99.90
40153;DHT22;26371;56.992;23.912;2024-03-22T10:43:16;5.20;99.90
40153;DHT22;26371;56.992;23.912;2024-03-22T10:45:48;5.30;99.90
40153;DHT22;26371;56.992;23.912;2024-03-22T10:48:17;5.30;99.90
40153;DHT22;26371;56.992;23.912;2024-03-22T10:50:47;5.30;99.90
40153;DHT22;26371;56.992;23.912;2024-03-22T10:53:18;5.30;99.90
40153;DHT22;26371;56.992;23.912;2024-03-22T10:55:48;5.30;99.90
40153;DHT22;26371;56.992;23.912;2024-03-22T10:58:17;5.40;99.90
40153;DHT22;26371;56.992;23.912;2024-03-22T11:00:45;5.40;99.90
40153;DHT22;26371;56.992;23.912;2024-03-22T11:03:13;5.40;99.90
40153;DHT22;26371;56.992;23.912;2024-03-22T11:05:46;5.50;99.90
40153;DHT22;26371;56.992;23.912;2024-03-22T11:08:22;5.50;99.90
40153;DHT22;26371;56.992;23.912;2024-03-22T11:10:50;5.60;99.90
40153;DHT22;26371;56.992;23.912;2024-03-22T11:13:19;5.60;99.90
40153;DHT22;26371;56.992;23.912;2024-03-22T11:15:48;5.60;99.90
40153;DHT22;26371;56.992;23.912;2024-03-22T11:18:15;5.60;99.90
40153;DHT22;26371;56.992;23.912;2024-03-22T11:20:42;5.60;99.90
40153;DHT22;26371;56.992;23.912;2024-03-22T11:23:12;5.60;99.90
40153;DHT22;26371;56.992;23.912;2024-03-22T11:25:40;5.70;99.90
40153;DHT22;26371;56.992;23.912;2024-03-22T11:28:07;5.70;99.90
40153;DHT22;26371;56.992;23.912;2024-03-22T11:30:36;5.70;99.90
40153;DHT22;26371;56.992;23.912;2024-03-22T11:33:03;5.70;99.90
40153;DHT22;26371;56.992;23.912;2024-03-22T11:35:32;5.70;99.90
40153;DHT22;26371;56.992;23.912;2024-03-22T11:37:59;5.80;99.90
40153;DHT22;26371;56.992;23.912;2024-03-22T11:40:27;5.80;99.90
40153;DHT22;26371;56.992;23.912;2024-03-22T11:42:56;5.80;99.90
40153;DHT22;26371;56.992;23.912;2024-03-22T11:45:26;5.90;99.90
40153;DHT22;26371;56.992;23.912;2024-03-22T11:47:54;5.80;99.90
40153;DHT22;26371;56.992;23.912;2024-03-22T11:50:22;5.80;99.90
40153;DHT22;26371;56.992;23.912;2024-03-22T11:52:49;5.70;99.90
40153;DHT22;26371;56.992;23.912;2024-03-22T11:55:17;5.70;99.90
40153;DHT22;26371;56.992;23.912;2024-03-22T11:57:48;5.80;99.90
40153;DHT22;26371;56.992;23.912;2024-03-22T12:00:17;5.70;99.90
40153;DHT22;26371;56.992;23.912;2024-03-22T12:02:44;5.80;99.90
40153;DHT22;26371;56.992;23.912;2024-03-22T12:05:13;5.90;99.90
40153;DHT22;26371;56.992;23.912;2024-03-22T12:07:40;5.90;99.90
40153;DHT22;26371;56.992;23.912;2024-03-22T12:10:09;5.90;99.90
40153;DHT22;26371;56.992;23.912;2024-03-22T12:12:36;6.00;99.90
40153;DHT22;26371;56.992;23.912;2024-03-22T12:15:04;5.90;99.90
40153;DHT22;26371;56.992;23.912;2024-03-22T12:17:31;5.90;99.90
40153;DHT22;26371;56.992;23.912;2024-03-22T12:19:59;5.90;99.90
40153;DHT22;26371;56.992;23.912;2024-03-22T12:22:28;5.90;99.90
40153;DHT22;26371;56.992;23.912;2024-03-22T12:24:56;6.00;99.90
40153;DHT22;26371;56.992;23.912;2024-03-22T12:27:23;6.00;99.90
40153;DHT22;26371;56.992;23.912;2024-03-22T12:29:51;6.00;99.90
40153;DHT22;26371;56.992;23.912;2024-03-22T12:32:17;5.90;99.90
40153;DHT22;26371;56.992;23.912;2024-03-22T12:34:45;5.90;99.90
40153;DHT22;26371;56.992;23.912;2024-03-22T12:37:11;6.00;99.90
40153;DHT22;26371;56.992;23.912;2024-03-22T12:39:40;6.00;99.90
40153;DHT22;26371;56.992;23.912;2024-03-22T12:42:07;6.00;99.90
40153;DHT22;26371;56.992;23.912;2024-03-22T12:44:35;5.90;99.90
40153;DHT22;26371;56.992;23.912;2024-03-22T12:47:01;6.00;99.90
40153;DHT22;26371;56.992;23.912;2024-03-22T12:49:29;6.00;99.90
40153;DHT22;26371;56.992;23.912;2024-03-22T12:51:56;6.10;99.90
40153;DHT22;26371;56.992;23.912;2024-03-22T12:54:24;6.10;99.90
40153;DHT22;26371;56.992;23.912;2024-03-22T12:56:53;6.00;99.90
40153;DHT22;26371;56.992;23.912;2024-03-22T12:59:20;5.90;99.90
40153;DHT22;26371;56.992;23.912;2024-03-22T13:01:47;5.90;99.90
40153;DHT22;26371;56.992;23.912;2024-03-22T13:04:15;5.90;99.90
40153;DHT22;26371;56.992;23.912;2024-03-22T13:06:43;6.00;99.90
40153;DHT22;26371;56.992;23.912;2024-03-22T13:09:14;6.00;99.90
40153;DHT22;26371;56.992;23.912;2024-03-22T13:11:42;6.00;99.90
40153;DHT22;26371;56.992;23.912;2024-03-22T13:14:11;5.90;99.90
40153;DHT22;26371;56.992;23.912;2024-03-22T13:16:37;5.90;99.90
40153;DHT22;26371;56.992;23.912;2024-03-22T13:19:05;5.80;99.90
40153;DHT22;26371;56.992;23.912;2024-03-22T13:21:34;5.90;99.90
40153;DHT22;26371;56.992;23.912;2024-03-22T13:24:02;5.80;99.90
40153;DHT22;26371;56.992;23.912;2024-03-22T13:26:29;5.80;99.90
40153;DHT22;26371;56.992;23.912;2024-03-22T13:28:57;5.80;99.90
40153;DHT22;26371;56.992;23.912;2024-03-22T13:31:25;5.80;99.90
40153;DHT22;26371;56.992;23.912;2024-03-22T13:33:52;5.80;99.90
40153;DHT22;26371;56.992;23.912;2024-03-22T13:36:19;5.80;99.90
40153;DHT22;26371;56.992;23.912;2024-03-22T13:38:46;5.80;99.90
40153;DHT22;26371;56.992;23.912;2024-03-22T13:41:13;5.80;99.90
40153;DHT22;26371;56.992;23.912;2024-03-22T13:43:41;5.80;99.90
40153;DHT22;26371;56.992;23.912;2024-03-22T13:46:10;5.80;99.90
40153;DHT22;26371;56.992;23.912;2024-03-22T13:48:42;5.70;99.90
40153;DHT22;26371;56.992;23.912;2024-03-22T13:51:10;5.70;99.90
40153;DHT22;26371;56.992;23.912;2024-03-22T13:53:37;5.70;99.90
40153;DHT22;26371;56.992;23.912;2024-03-22T13:56:04;5.70;99.90
40153;DHT22;26371;56.992;23.912;2024-03-22T13:58:32;5.70;99.90
40153;DHT22;26371;56.992;23.912;2024-03-22T14:01:00;5.70;99.90
40153;DHT22;26371;56.992;23.912;2024-03-22T14:03:29;5.60;99.90
40153;DHT22;26371;56.992;23.912;2024-03-22T14:05:57;5.60;99.90
40153;DHT22;26371;56.992;23.912;2024-03-22T14:08:25;5.60;99.90
40153;DHT22;26371;56.992;23.912;2024-03-22T14:10:52;5.60;99.90
40153;DHT22;26371;56.992;23.912;2024-03-22T14:13:19;5.60;99.90
40153;DHT22;26371;56.992;23.912;2024-03-22T14:15:46;5.60;99.90
40153;DHT22;26371;56.992;23.912;2024-03-22T14:18:14;5.60;99.90
40153;DHT22;26371;56.992;23.912;2024-03-22T14:20:40;5.60;99.90
40153;DHT22;26371;56.992;23.912;2024-03-22T14:23:09;5.50;99.90
40153;DHT22;26371;56.992;23.912;2024-03-22T14:25:36;5.60;99.90
40153;DHT22;26371;56.992;23.912;2024-03-22T14:28:04;5.60;99.90
40153;DHT22;26371;56.992;23.912;2024-03-22T14:30:31;5.60;99.90
40153;DHT22;26371;56.992;23.912;2024-03-22T14:32:58;5.60;99.90
40153;DHT22;26371;56.992;23.912;2024-03-22T14:35:25;5.60;99.90
40153;DHT22;26371;56.992;23.912;2024-03-22T14:37:53;5.60;99.90
40153;DHT22;26371;56.992;23.912;2024-03-22T14:40:21;5.60;99.90
40153;DHT22;26371;56.992;23.912;2024-03-22T14:42:49;5.50;99.90
40153;DHT22;26371;56.992;23.912;2024-03-22T14:45:16;5.50;99.90
40153;DHT22;26371;56.992;23.912;2024-03-22T14:47:47;5.60;99.90
40153;DHT22;26371;56.992;23.912;2024-03-22T14:50:18;5.60;99.90
40153;DHT22;26371;56.992;23.912;2024-03-22T14:52:50;5.60;99.90
40153;DHT22;26371;56.992;23.912;2024-03-22T14:55:17;5.60;99.90
40153;DHT22;26371;56.992;23.912;2024-03-22T14:57:46;5.70;99.90
40153;DHT22;26371;56.992;23.912;2024-03-22T15:00:15;5.70;99.90
40153;DHT22;26371;56.992;23.912;2024-03-22T15:02:43;5.70;99.90
40153;DHT22;26371;56.992;23.912;2024-03-22T15:05:10;5.70;99.90
40153;DHT22;26371;56.992;23.912;2024-03-22T15:07:38;5.70;99.90
40153;DHT22;26371;56.992;23.912;2024-03-22T15:10:05;5.70;99.90
40153;DHT22;26371;56.992;23.912;2024-03-22T15:12:33;5.70;99.90
40153;DHT22;26371;56.992;23.912;2024-03-22T15:15:01;5.70;99.90
40153;DHT22;26371;56.992;23.912;2024-03-22T15:17:29;5.70;99.90
40153;DHT22;26371;56.992;23.912;2024-03-22T15:19:56;5.70;99.90
40153;DHT22;26371;56.992;23.912;2024-03-22T15:22:24;5.70;99.90
40153;DHT22;26371;56.992;23.912;2024-03-22T15:24:51;5.70;99.90
40153;DHT22;26371;56.992;23.912;2024-03-22T15:27:19;5.70;99.90
40153;DHT22;26371;56.992;23.912;2024-03-22T15:29:46;5.60;99.90
40153;DHT22;26371;56.992;23.912;2024-03-22T15:32:15;5.70;99.90